Terminal Aerodrome Forecast
Issued by NWS Riverton, WY

Home | Current Version | Previous Version | Text Only | Print | Product List | Glossary On
Versions: 1 2 3 4 5 6 7 8 9 10 11 12 13 14 15 16 17 18 19
454
FTUS45 KRIW 221128
TAFRIW
TAF
KRIW 221128Z 2212/2312 28006KT P6SM VCFG SCT003
      TEMPO 2212/2214 3/4SM BR
     FM221600 VRB05KT P6SM SCT110 BKN250
     FM222000 28007KT P6SM BKN110
     FM230900 30009KT P6SM SCT110=

USA.gov is the U.S. government's official web portal to all federal, state and local government web resources and services.